Details for Ryanair at EGPH




Go Back


Latest METAR
Local Time

EGPH 220920Z 25012KT CAVOK 10/06 Q1012
22/09/2018, 10:48:27

Description
Results
Ryanair Logo
Number of Pilots based at EGPH
0 Pilots Based here
Number of Ryanair Flights Departed from EGPH
7 Flights Departed
Number of Ryanair Flights Arrived at EGPH
12 Flights Arrived
Number of Ryanair Schedules Departing from EGPH
91 Schedules
Number of Ryanair Schedules Arriving at EGPH
91 Schedules
Number of Ryanair Schedules Departing from EGPH availible today
27 Schedules Today
Number of Ryanair Schedules Arriving at EGPH availible today
27 Schedules Today
Average Landing Rate at EGPH
-237 fpm
Ryanair Average Landing Rate at EGPH
-202 fpm
Total Fuel Purchased at EGPH by Ryanair
30,202.90 kgs / 66,585.31 lbs

Pilots Based at EGPH


Pilot ID
Pilot Name
Pilot Rank
No. of Flights
No. of Flying Hours
There are no pilots assigned to this hub!   Will you be the first?
Content